sensor_id;sensor_type;location;lat;lon;timestamp;P1;durP1;ratioP1;P2;durP2;ratioP2
39410;SDS011;26579;43.238;23.124;2023-02-19T00:00:03;6.20;;;3.47;;
39410;SDS011;26579;43.238;23.124;2023-02-19T00:02:38;5.90;;;3.35;;
39410;SDS011;26579;43.238;23.124;2023-02-19T00:05:04;4.97;;;3.30;;
39410;SDS011;26579;43.238;23.124;2023-02-19T00:07:30;7.90;;;3.72;;
39410;SDS011;26579;43.238;23.124;2023-02-19T00:09:56;4.75;;;2.97;;
39410;SDS011;26579;43.238;23.124;2023-02-19T00:12:22;5.07;;;2.92;;
39410;SDS011;26579;43.238;23.124;2023-02-19T00:14:47;5.07;;;2.38;;
39410;SDS011;26579;43.238;23.124;2023-02-19T00:17:13;5.28;;;2.70;;
39410;SDS011;26579;43.238;23.124;2023-02-19T00:19:39;3.67;;;2.00;;
39410;SDS011;26579;43.238;23.124;2023-02-19T00:22:05;4.90;;;3.28;;
39410;SDS011;26579;43.238;23.124;2023-02-19T00:24:30;3.75;;;1.80;;
39410;SDS011;26579;43.238;23.124;2023-02-19T00:26:56;4.65;;;2.85;;
39410;SDS011;26579;43.238;23.124;2023-02-19T00:29:22;5.15;;;3.00;;
39410;SDS011;26579;43.238;23.124;2023-02-19T00:31:49;5.28;;;2.17;;
39410;SDS011;26579;43.238;23.124;2023-02-19T00:34:14;4.95;;;2.17;;
39410;SDS011;26579;43.238;23.124;2023-02-19T00:36:40;4.47;;;2.22;;
39410;SDS011;26579;43.238;23.124;2023-02-19T00:39:07;7.50;;;3.47;;
39410;SDS011;26579;43.238;23.124;2023-02-19T00:41:35;7.15;;;4.00;;
39410;SDS011;26579;43.238;23.124;2023-02-19T00:44:02;9.75;;;4.22;;
39410;SDS011;26579;43.238;23.124;2023-02-19T00:48:59;4.72;;;2.05;;
39410;SDS011;26579;43.238;23.124;2023-02-19T00:51:27;3.95;;;2.17;;
39410;SDS011;26579;43.238;23.124;2023-02-19T00:53:55;3.95;;;2.60;;
39410;SDS011;26579;43.238;23.124;2023-02-19T00:56:21;3.45;;;2.05;;
39410;SDS011;26579;43.238;23.124;2023-02-19T00:58:47;5.88;;;2.20;;
39410;SDS011;26579;43.238;23.124;2023-02-19T01:01:14;3.92;;;1.92;;
39410;SDS011;26579;43.238;23.124;2023-02-19T01:03:40;3.97;;;2.22;;
39410;SDS011;26579;43.238;23.124;2023-02-19T01:06:06;5.82;;;3.30;;
39410;SDS011;26579;43.238;23.124;2023-02-19T01:08:33;4.88;;;3.40;;
39410;SDS011;26579;43.238;23.124;2023-02-19T01:11:00;5.15;;;2.50;;
39410;SDS011;26579;43.238;23.124;2023-02-19T01:13:27;3.70;;;2.20;;
39410;SDS011;26579;43.238;23.124;2023-02-19T01:16:01;7.07;;;2.40;;
39410;SDS011;26579;43.238;23.124;2023-02-19T01:18:31;4.80;;;2.67;;
39410;SDS011;26579;43.238;23.124;2023-02-19T01:20:58;4.00;;;1.95;;
39410;SDS011;26579;43.238;23.124;2023-02-19T01:23:24;4.72;;;2.50;;
39410;SDS011;26579;43.238;23.124;2023-02-19T01:25:50;5.78;;;2.58;;
39410;SDS011;26579;43.238;23.124;2023-02-19T01:28:15;6.18;;;3.00;;
39410;SDS011;26579;43.238;23.124;2023-02-19T01:30:41;7.80;;;3.88;;
39410;SDS011;26579;43.238;23.124;2023-02-19T01:33:07;7.15;;;3.58;;
39410;SDS011;26579;43.238;23.124;2023-02-19T01:35:33;10.77;;;3.70;;
39410;SDS011;26579;43.238;23.124;2023-02-19T01:38:02;8.23;;;3.55;;
39410;SDS011;26579;43.238;23.124;2023-02-19T01:40:28;10.38;;;4.45;;
39410;SDS011;26579;43.238;23.124;2023-02-19T01:42:54;9.52;;;4.05;;
39410;SDS011;26579;43.238;23.124;2023-02-19T01:45:22;7.28;;;4.25;;
39410;SDS011;26579;43.238;23.124;2023-02-19T01:48:02;8.63;;;4.53;;
39410;SDS011;26579;43.238;23.124;2023-02-19T01:50:33;9.02;;;4.22;;
39410;SDS011;26579;43.238;23.124;2023-02-19T01:53:03;6.35;;;3.20;;
39410;SDS011;26579;43.238;23.124;2023-02-19T01:55:32;7.82;;;3.22;;
39410;SDS011;26579;43.238;23.124;2023-02-19T01:57:59;7.25;;;3.38;;
39410;SDS011;26579;43.238;23.124;2023-02-19T02:00:27;13.05;;;6.45;;
39410;SDS011;26579;43.238;23.124;2023-02-19T02:02:53;9.77;;;5.53;;
39410;SDS011;26579;43.238;23.124;2023-02-19T02:08:10;20.33;;;7.63;;
39410;SDS011;26579;43.238;23.124;2023-02-19T02:10:38;11.45;;;5.00;;
39410;SDS011;26579;43.238;23.124;2023-02-19T02:13:04;8.15;;;4.00;;
39410;SDS011;26579;43.238;23.124;2023-02-19T02:25:08;7.22;;;2.90;;
39410;SDS011;26579;43.238;23.124;2023-02-19T02:30:43;7.68;;;4.40;;
39410;SDS011;26579;43.238;23.124;2023-02-19T02:33:37;7.55;;;4.03;;
39410;SDS011;26579;43.238;23.124;2023-02-19T02:39:05;8.27;;;4.50;;
39410;SDS011;26579;43.238;23.124;2023-02-19T02:41:41;6.82;;;3.72;;
39410;SDS011;26579;43.238;23.124;2023-02-19T02:44:09;7.45;;;4.47;;
39410;SDS011;26579;43.238;23.124;2023-02-19T02:46:36;12.65;;;5.18;;
39410;SDS011;26579;43.238;23.124;2023-02-19T02:49:05;6.95;;;3.92;;
39410;SDS011;26579;43.238;23.124;2023-02-19T02:51:46;5.78;;;3.30;;
39410;SDS011;26579;43.238;23.124;2023-02-19T02:54:28;5.55;;;3.47;;
39410;SDS011;26579;43.238;23.124;2023-02-19T02:57:01;5.97;;;3.35;;
39410;SDS011;26579;43.238;23.124;2023-02-19T02:59:32;7.85;;;4.07;;
39410;SDS011;26579;43.238;23.124;2023-02-19T03:02:06;6.07;;;3.42;;
39410;SDS011;26579;43.238;23.124;2023-02-19T03:04:51;12.48;;;4.53;;
39410;SDS011;26579;43.238;23.124;2023-02-19T03:09:43;6.65;;;4.13;;
39410;SDS011;26579;43.238;23.124;2023-02-19T03:12:11;12.35;;;3.85;;
39410;SDS011;26579;43.238;23.124;2023-02-19T03:14:45;8.88;;;4.05;;
39410;SDS011;26579;43.238;23.124;2023-02-19T03:17:36;7.97;;;4.20;;
39410;SDS011;26579;43.238;23.124;2023-02-19T03:20:06;8.05;;;3.75;;
39410;SDS011;26579;43.238;23.124;2023-02-19T03:22:37;7.95;;;4.05;;
39410;SDS011;26579;43.238;23.124;2023-02-19T03:25:06;10.68;;;4.65;;
39410;SDS011;26579;43.238;23.124;2023-02-19T03:27:38;8.23;;;5.03;;
39410;SDS011;26579;43.238;23.124;2023-02-19T03:30:12;8.35;;;3.80;;
39410;SDS011;26579;43.238;23.124;2023-02-19T03:32:47;5.20;;;3.53;;
39410;SDS011;26579;43.238;23.124;2023-02-19T03:38:00;11.77;;;6.30;;
39410;SDS011;26579;43.238;23.124;2023-02-19T03:40:42;17.67;;;8.75;;
39410;SDS011;26579;43.238;23.124;2023-02-19T03:43:23;13.63;;;7.28;;
39410;SDS011;26579;43.238;23.124;2023-02-19T03:46:10;12.80;;;8.15;;
39410;SDS011;26579;43.238;23.124;2023-02-19T03:48:47;14.27;;;7.97;;
39410;SDS011;26579;43.238;23.124;2023-02-19T03:56:37;22.83;;;10.90;;
39410;SDS011;26579;43.238;23.124;2023-02-19T04:01:46;39.03;;;24.83;;
39410;SDS011;26579;43.238;23.124;2023-02-19T04:04:23;36.78;;;20.23;;
39410;SDS011;26579;43.238;23.124;2023-02-19T04:07:00;33.80;;;18.48;;
39410;SDS011;26579;43.238;23.124;2023-02-19T04:09:32;30.17;;;17.08;;
39410;SDS011;26579;43.238;23.124;2023-02-19T04:12:05;29.42;;;17.60;;
39410;SDS011;26579;43.238;23.124;2023-02-19T04:17:07;25.05;;;15.63;;
39410;SDS011;26579;43.238;23.124;2023-02-19T04:19:38;27.60;;;16.17;;
39410;SDS011;26579;43.238;23.124;2023-02-19T04:22:06;24.52;;;16.73;;
39410;SDS011;26579;43.238;23.124;2023-02-19T04:24:37;24.95;;;15.70;;
39410;SDS011;26579;43.238;23.124;2023-02-19T04:27:07;27.27;;;15.13;;
39410;SDS011;26579;43.238;23.124;2023-02-19T04:29:34;29.50;;;15.50;;
39410;SDS011;26579;43.238;23.124;2023-02-19T04:32:00;31.88;;;16.13;;
39410;SDS011;26579;43.238;23.124;2023-02-19T04:34:26;26.27;;;16.52;;
39410;SDS011;26579;43.238;23.124;2023-02-19T04:36:52;35.50;;;18.92;;
39410;SDS011;26579;43.238;23.124;2023-02-19T04:39:18;28.42;;;18.48;;
39410;SDS011;26579;43.238;23.124;2023-02-19T04:41:44;31.15;;;22.30;;
39410;SDS011;26579;43.238;23.124;2023-02-19T04:44:10;19.88;;;13.90;;
39410;SDS011;26579;43.238;23.124;2023-02-19T04:46:35;23.92;;;12.52;;
39410;SDS011;26579;43.238;23.124;2023-02-19T04:49:01;27.92;;;14.50;;
39410;SDS011;26579;43.238;23.124;2023-02-19T04:51:27;17.73;;;10.88;;
39410;SDS011;26579;43.238;23.124;2023-02-19T04:53:52;16.38;;;10.13;;
39410;SDS011;26579;43.238;23.124;2023-02-19T04:56:18;21.00;;;9.75;;
39410;SDS011;26579;43.238;23.124;2023-02-19T04:58:44;30.48;;;15.13;;
39410;SDS011;26579;43.238;23.124;2023-02-19T05:01:10;22.45;;;11.75;;
39410;SDS011;26579;43.238;23.124;2023-02-19T05:03:36;22.05;;;11.63;;
39410;SDS011;26579;43.238;23.124;2023-02-19T05:06:05;24.90;;;11.43;;
39410;SDS011;26579;43.238;23.124;2023-02-19T05:08:34;25.45;;;14.73;;
39410;SDS011;26579;43.238;23.124;2023-02-19T05:11:01;28.85;;;13.32;;
39410;SDS011;26579;43.238;23.124;2023-02-19T05:13:28;20.75;;;12.15;;
39410;SDS011;26579;43.238;23.124;2023-02-19T05:16:05;15.02;;;7.90;;
39410;SDS011;26579;43.238;23.124;2023-02-19T05:18:33;19.35;;;7.72;;
39410;SDS011;26579;43.238;23.124;2023-02-19T05:20:59;14.07;;;8.30;;
39410;SDS011;26579;43.238;23.124;2023-02-19T05:23:26;16.63;;;10.32;;
39410;SDS011;26579;43.238;23.124;2023-02-19T05:25:52;16.58;;;9.98;;
39410;SDS011;26579;43.238;23.124;2023-02-19T05:28:18;14.82;;;9.43;;
39410;SDS011;26579;43.238;23.124;2023-02-19T05:30:48;11.80;;;6.93;;
39410;SDS011;26579;43.238;23.124;2023-02-19T05:33:16;15.80;;;9.45;;
39410;SDS011;26579;43.238;23.124;2023-02-19T05:35:45;11.63;;;5.95;;
39410;SDS011;26579;43.238;23.124;2023-02-19T05:38:12;9.23;;;5.28;;
39410;SDS011;26579;43.238;23.124;2023-02-19T05:40:39;9.90;;;6.07;;
39410;SDS011;26579;43.238;23.124;2023-02-19T05:43:05;14.32;;;7.47;;
39410;SDS011;26579;43.238;23.124;2023-02-19T05:45:32;21.52;;;9.82;;
39410;SDS011;26579;43.238;23.124;2023-02-19T05:47:58;14.25;;;7.82;;
39410;SDS011;26579;43.238;23.124;2023-02-19T05:50:24;11.95;;;7.78;;
39410;SDS011;26579;43.238;23.124;2023-02-19T05:52:49;16.27;;;9.45;;
39410;SDS011;26579;43.238;23.124;2023-02-19T05:55:15;15.30;;;8.63;;
39410;SDS011;26579;43.238;23.124;2023-02-19T05:57:42;11.50;;;7.40;;
39410;SDS011;26579;43.238;23.124;2023-02-19T06:00:09;19.33;;;9.43;;
39410;SDS011;26579;43.238;23.124;2023-02-19T06:02:40;24.10;;;13.32;;
39410;SDS011;26579;43.238;23.124;2023-02-19T06:05:06;20.65;;;13.55;;
39410;SDS011;26579;43.238;23.124;2023-02-19T06:07:32;29.00;;;13.80;;
39410;SDS011;26579;43.238;23.124;2023-02-19T06:09:59;22.75;;;13.30;;
39410;SDS011;26579;43.238;23.124;2023-02-19T06:12:25;21.67;;;10.57;;
39410;SDS011;26579;43.238;23.124;2023-02-19T06:14:50;19.08;;;10.95;;
39410;SDS011;26579;43.238;23.124;2023-02-19T06:17:16;16.45;;;9.90;;
39410;SDS011;26579;43.238;23.124;2023-02-19T06:19:42;15.20;;;8.82;;
39410;SDS011;26579;43.238;23.124;2023-02-19T06:22:08;27.00;;;12.55;;
39410;SDS011;26579;43.238;23.124;2023-02-19T06:24:34;21.02;;;11.05;;
39410;SDS011;26579;43.238;23.124;2023-02-19T06:27:00;21.27;;;11.55;;
39410;SDS011;26579;43.238;23.124;2023-02-19T06:29:25;15.13;;;8.45;;
39410;SDS011;26579;43.238;23.124;2023-02-19T06:31:51;14.13;;;8.07;;
39410;SDS011;26579;43.238;23.124;2023-02-19T06:34:17;14.25;;;9.13;;
39410;SDS011;26579;43.238;23.124;2023-02-19T06:36:43;15.38;;;9.88;;
39410;SDS011;26579;43.238;23.124;2023-02-19T06:39:08;18.95;;;12.07;;
39410;SDS011;26579;43.238;23.124;2023-02-19T06:41:34;21.15;;;13.10;;
39410;SDS011;26579;43.238;23.124;2023-02-19T06:44:00;16.50;;;11.10;;
39410;SDS011;26579;43.238;23.124;2023-02-19T06:46:26;20.65;;;13.75;;
39410;SDS011;26579;43.238;23.124;2023-02-19T06:48:51;23.58;;;16.17;;
39410;SDS011;26579;43.238;23.124;2023-02-19T06:51:17;49.22;;;26.98;;
39410;SDS011;26579;43.238;23.124;2023-02-19T06:53:44;62.80;;;42.85;;
39410;SDS011;26579;43.238;23.124;2023-02-19T06:56:21;53.95;;;39.65;;
39410;SDS011;26579;43.238;23.124;2023-02-19T06:58:57;48.40;;;32.78;;
39410;SDS011;26579;43.238;23.124;2023-02-19T07:01:25;50.05;;;34.75;;
39410;SDS011;26579;43.238;23.124;2023-02-19T07:03:51;59.67;;;38.50;;
39410;SDS011;26579;43.238;23.124;2023-02-19T07:06:21;48.80;;;27.90;;
39410;SDS011;26579;43.238;23.124;2023-02-19T07:08:48;51.30;;;31.75;;
39410;SDS011;26579;43.238;23.124;2023-02-19T07:11:14;46.25;;;29.35;;
39410;SDS011;26579;43.238;23.124;2023-02-19T07:13:40;36.75;;;24.88;;
39410;SDS011;26579;43.238;23.124;2023-02-19T07:16:07;34.17;;;22.83;;
39410;SDS011;26579;43.238;23.124;2023-02-19T07:18:34;22.27;;;15.23;;
39410;SDS011;26579;43.238;23.124;2023-02-19T07:21:03;17.95;;;13.60;;
39410;SDS011;26579;43.238;23.124;2023-02-19T07:23:33;21.27;;;17.02;;
39410;SDS011;26579;43.238;23.124;2023-02-19T07:25:59;15.25;;;10.70;;
39410;SDS011;26579;43.238;23.124;2023-02-19T07:28:25;17.45;;;10.10;;
39410;SDS011;26579;43.238;23.124;2023-02-19T07:30:51;20.05;;;13.25;;
39410;SDS011;26579;43.238;23.124;2023-02-19T07:33:18;21.20;;;14.65;;
39410;SDS011;26579;43.238;23.124;2023-02-19T07:35:47;6.10;;;4.30;;
39410;SDS011;26579;43.238;23.124;2023-02-19T07:38:14;5.57;;;2.42;;
39410;SDS011;26579;43.238;23.124;2023-02-19T07:40:57;5.18;;;3.55;;
39410;SDS011;26579;43.238;23.124;2023-02-19T07:43:25;9.00;;;3.17;;
39410;SDS011;26579;43.238;23.124;2023-02-19T07:45:53;4.57;;;2.70;;
39410;SDS011;26579;43.238;23.124;2023-02-19T07:48:19;6.75;;;3.78;;
39410;SDS011;26579;43.238;23.124;2023-02-19T07:50:51;8.40;;;4.63;;
39410;SDS011;26579;43.238;23.124;2023-02-19T07:53:18;6.38;;;3.15;;
39410;SDS011;26579;43.238;23.124;2023-02-19T07:55:44;4.45;;;3.13;;
39410;SDS011;26579;43.238;23.124;2023-02-19T07:58:10;7.57;;;4.72;;
39410;SDS011;26579;43.238;23.124;2023-02-19T08:00:35;16.15;;;11.50;;
39410;SDS011;26579;43.238;23.124;2023-02-19T08:03:01;9.32;;;6.38;;
39410;SDS011;26579;43.238;23.124;2023-02-19T08:05:28;4.80;;;2.60;;
39410;SDS011;26579;43.238;23.124;2023-02-19T08:07:56;4.28;;;3.15;;
39410;SDS011;26579;43.238;23.124;2023-02-19T08:10:25;5.28;;;2.33;;
39410;SDS011;26579;43.238;23.124;2023-02-19T08:12:55;4.70;;;2.90;;
39410;SDS011;26579;43.238;23.124;2023-02-19T08:15:24;4.20;;;2.90;;
39410;SDS011;26579;43.238;23.124;2023-02-19T08:17:50;5.03;;;3.45;;
39410;SDS011;26579;43.238;23.124;2023-02-19T08:20:16;3.25;;;2.10;;
39410;SDS011;26579;43.238;23.124;2023-02-19T08:22:41;3.75;;;2.20;;
39410;SDS011;26579;43.238;23.124;2023-02-19T08:25:07;2.70;;;1.80;;
39410;SDS011;26579;43.238;23.124;2023-02-19T08:27:33;9.88;;;3.63;;
39410;SDS011;26579;43.238;23.124;2023-02-19T08:30:00;7.05;;;4.20;;
39410;SDS011;26579;43.238;23.124;2023-02-19T08:32:25;6.70;;;3.95;;
39410;SDS011;26579;43.238;23.124;2023-02-19T08:34:51;7.28;;;3.88;;
39410;SDS011;26579;43.238;23.124;2023-02-19T08:37:18;5.00;;;3.13;;
39410;SDS011;26579;43.238;23.124;2023-02-19T08:39:43;7.32;;;3.30;;
39410;SDS011;26579;43.238;23.124;2023-02-19T08:42:09;7.55;;;4.22;;
39410;SDS011;26579;43.238;23.124;2023-02-19T08:44:35;5.43;;;3.45;;
39410;SDS011;26579;43.238;23.124;2023-02-19T08:47:02;7.68;;;4.15;;
39410;SDS011;26579;43.238;23.124;2023-02-19T08:49:28;7.10;;;3.13;;
39410;SDS011;26579;43.238;23.124;2023-02-19T08:51:54;7.53;;;4.45;;
39410;SDS011;26579;43.238;23.124;2023-02-19T08:54:19;7.65;;;6.32;;
39410;SDS011;26579;43.238;23.124;2023-02-19T08:56:45;4.07;;;3.67;;
39410;SDS011;26579;43.238;23.124;2023-02-19T08:59:11;3.75;;;2.80;;
39410;SDS011;26579;43.238;23.124;2023-02-19T09:01:36;6.50;;;3.33;;
39410;SDS011;26579;43.238;23.124;2023-02-19T09:04:02;4.05;;;3.00;;
39410;SDS011;26579;43.238;23.124;2023-02-19T09:06:28;7.03;;;4.55;;
39410;SDS011;26579;43.238;23.124;2023-02-19T09:08:53;8.68;;;5.30;;
39410;SDS011;26579;43.238;23.124;2023-02-19T09:11:19;3.63;;;2.80;;
39410;SDS011;26579;43.238;23.124;2023-02-19T09:13:45;4.63;;;3.20;;
39410;SDS011;26579;43.238;23.124;2023-02-19T09:16:11;3.88;;;2.28;;
39410;SDS011;26579;43.238;23.124;2023-02-19T09:18:37;9.60;;;2.85;;
39410;SDS011;26579;43.238;23.124;2023-02-19T09:21:04;3.58;;;1.95;;
39410;SDS011;26579;43.238;23.124;2023-02-19T09:23:34;3.78;;;2.00;;
39410;SDS011;26579;43.238;23.124;2023-02-19T09:26:09;4.13;;;3.20;;
39410;SDS011;26579;43.238;23.124;2023-02-19T09:28:34;6.28;;;2.20;;
39410;SDS011;26579;43.238;23.124;2023-02-19T09:31:04;3.17;;;2.13;;
39410;SDS011;26579;43.238;23.124;2023-02-19T09:33:31;3.05;;;2.05;;
39410;SDS011;26579;43.238;23.124;2023-02-19T09:36:00;3.50;;;2.33;;
39410;SDS011;26579;43.238;23.124;2023-02-19T09:38:26;2.78;;;2.03;;
39410;SDS011;26579;43.238;23.124;2023-02-19T09:40:52;13.48;;;8.77;;
39410;SDS011;26579;43.238;23.124;2023-02-19T09:43:19;7.20;;;3.42;;
39410;SDS011;26579;43.238;23.124;2023-02-19T09:45:49;7.25;;;4.68;;
39410;SDS011;26579;43.238;23.124;2023-02-19T09:48:25;6.10;;;2.60;;
39410;SDS011;26579;43.238;23.124;2023-02-19T09:50:51;4.45;;;3.15;;
39410;SDS011;26579;43.238;23.124;2023-02-19T09:53:19;6.20;;;3.38;;
39410;SDS011;26579;43.238;23.124;2023-02-19T09:55:49;6.18;;;3.42;;
39410;SDS011;26579;43.238;23.124;2023-02-19T10:00:44;6.97;;;4.55;;
39410;SDS011;26579;43.238;23.124;2023-02-19T10:03:30;5.95;;;2.60;;
39410;SDS011;26579;43.238;23.124;2023-02-19T10:06:05;5.07;;;3.10;;
39410;SDS011;26579;43.238;23.124;2023-02-19T10:08:35;4.13;;;3.00;;
39410;SDS011;26579;43.238;23.124;2023-02-19T10:11:01;6.18;;;3.10;;
39410;SDS011;26579;43.238;23.124;2023-02-19T10:13:35;11.50;;;9.95;;
39410;SDS011;26579;43.238;23.124;2023-02-19T10:16:06;4.05;;;2.65;;
39410;SDS011;26579;43.238;23.124;2023-02-19T10:18:39;8.93;;;5.78;;
39410;SDS011;26579;43.238;23.124;2023-02-19T10:21:14;4.63;;;2.53;;
39410;SDS011;26579;43.238;23.124;2023-02-19T10:23:45;5.05;;;3.05;;
39410;SDS011;26579;43.238;23.124;2023-02-19T10:26:14;4.35;;;3.17;;
39410;SDS011;26579;43.238;23.124;2023-02-19T10:28:40;3.75;;;2.75;;
39410;SDS011;26579;43.238;23.124;2023-02-19T10:31:16;23.33;;;16.80;;
39410;SDS011;26579;43.238;23.124;2023-02-19T10:33:53;5.28;;;2.72;;
39410;SDS011;26579;43.238;23.124;2023-02-19T10:39:28;13.68;;;3.33;;
39410;SDS011;26579;43.238;23.124;2023-02-19T10:41:59;19.23;;;6.00;;
39410;SDS011;26579;43.238;23.124;2023-02-19T10:44:28;10.32;;;3.97;;
39410;SDS011;26579;43.238;23.124;2023-02-19T10:47:06;12.55;;;4.85;;
39410;SDS011;26579;43.238;23.124;2023-02-19T10:49:38;4.20;;;1.98;;
39410;SDS011;26579;43.238;23.124;2023-02-19T10:52:13;11.38;;;4.90;;
39410;SDS011;26579;43.238;23.124;2023-02-19T10:54:44;5.35;;;2.60;;
39410;SDS011;26579;43.238;23.124;2023-02-19T10:59:40;4.78;;;2.65;;
39410;SDS011;26579;43.238;23.124;2023-02-19T11:02:18;4.95;;;2.55;;
39410;SDS011;26579;43.238;23.124;2023-02-19T11:05:01;4.07;;;2.67;;
39410;SDS011;26579;43.238;23.124;2023-02-19T11:07:38;5.80;;;3.42;;
39410;SDS011;26579;43.238;23.124;2023-02-19T11:10:28;5.75;;;3.03;;
39410;SDS011;26579;43.238;23.124;2023-02-19T11:12:57;11.07;;;3.53;;
39410;SDS011;26579;43.238;23.124;2023-02-19T11:15:32;5.15;;;4.03;;
39410;SDS011;26579;43.238;23.124;2023-02-19T11:18:03;4.90;;;3.22;;
39410;SDS011;26579;43.238;23.124;2023-02-19T11:23:48;4.65;;;2.53;;
39410;SDS011;26579;43.238;23.124;2023-02-19T11:26:17;9.45;;;4.35;;
39410;SDS011;26579;43.238;23.124;2023-02-19T11:28:54;5.30;;;3.38;;
39410;SDS011;26579;43.238;23.124;2023-02-19T11:31:22;12.63;;;3.03;;
39410;SDS011;26579;43.238;23.124;2023-02-19T11:33:55;6.13;;;2.88;;
39410;SDS011;26579;43.238;23.124;2023-02-19T11:36:28;5.03;;;2.97;;
39410;SDS011;26579;43.238;23.124;2023-02-19T11:38:54;4.82;;;3.25;;
39410;SDS011;26579;43.238;23.124;2023-02-19T11:54:50;8.43;;;4.32;;
39410;SDS011;26579;43.238;23.124;2023-02-19T12:10:20;6.88;;;3.78;;
39410;SDS011;26579;43.238;23.124;2023-02-19T12:24:17;3.83;;;2.35;;
39410;SDS011;26579;43.238;23.124;2023-02-19T12:35:08;5.18;;;2.95;;
39410;SDS011;26579;43.238;23.124;2023-02-19T12:37:46;5.75;;;3.30;;
39410;SDS011;26579;43.238;23.124;2023-02-19T12:43:22;4.20;;;3.38;;
39410;SDS011;26579;43.238;23.124;2023-02-19T12:48:18;6.38;;;3.35;;
39410;SDS011;26579;43.238;23.124;2023-02-19T12:50:53;7.05;;;3.50;;
39410;SDS011;26579;43.238;23.124;2023-02-19T12:56:03;17.08;;;11.68;;
39410;SDS011;26579;43.238;23.124;2023-02-19T12:58:37;5.68;;;3.58;;
39410;SDS011;26579;43.238;23.124;2023-02-19T13:01:08;7.78;;;3.08;;
39410;SDS011;26579;43.238;23.124;2023-02-19T13:03:39;7.28;;;3.47;;
39410;SDS011;26579;43.238;23.124;2023-02-19T13:06:28;4.40;;;2.13;;
39410;SDS011;26579;43.238;23.124;2023-02-19T13:12:11;5.57;;;3.22;;
39410;SDS011;26579;43.238;23.124;2023-02-19T13:14:48;13.50;;;6.35;;
39410;SDS011;26579;43.238;23.124;2023-02-19T13:25:53;9.73;;;6.47;;
39410;SDS011;26579;43.238;23.124;2023-02-19T13:34:27;5.68;;;3.10;;
39410;SDS011;26579;43.238;23.124;2023-02-19T13:37:14;5.63;;;2.95;;
39410;SDS011;26579;43.238;23.124;2023-02-19T13:40:01;7.10;;;2.78;;
39410;SDS011;26579;43.238;23.124;2023-02-19T13:42:34;10.00;;;4.70;;
39410;SDS011;26579;43.238;23.124;2023-02-19T13:45:02;8.85;;;4.05;;
39410;SDS011;26579;43.238;23.124;2023-02-19T13:50:23;8.68;;;3.53;;
39410;SDS011;26579;43.238;23.124;2023-02-19T13:52:54;4.68;;;2.97;;
39410;SDS011;26579;43.238;23.124;2023-02-19T14:01:19;6.05;;;3.33;;
39410;SDS011;26579;43.238;23.124;2023-02-19T14:03:54;9.07;;;3.95;;
39410;SDS011;26579;43.238;23.124;2023-02-19T14:14:37;6.85;;;3.83;;
39410;SDS011;26579;43.238;23.124;2023-02-19T14:25:32;6.68;;;4.32;;
39410;SDS011;26579;43.238;23.124;2023-02-19T14:30:45;10.27;;;6.63;;
39410;SDS011;26579;43.238;23.124;2023-02-19T14:33:15;8.65;;;5.63;;
39410;SDS011;26579;43.238;23.124;2023-02-19T14:35:44;10.98;;;6.80;;
39410;SDS011;26579;43.238;23.124;2023-02-19T14:38:14;18.23;;;6.25;;
39410;SDS011;26579;43.238;23.124;2023-02-19T14:40:44;9.95;;;4.97;;
39410;SDS011;26579;43.238;23.124;2023-02-19T14:43:13;12.07;;;4.60;;
39410;SDS011;26579;43.238;23.124;2023-02-19T14:45:42;8.27;;;4.43;;
39410;SDS011;26579;43.238;23.124;2023-02-19T14:48:16;7.68;;;4.95;;
39410;SDS011;26579;43.238;23.124;2023-02-19T14:50:56;10.02;;;3.88;;
39410;SDS011;26579;43.238;23.124;2023-02-19T14:53:27;6.93;;;3.65;;
39410;SDS011;26579;43.238;23.124;2023-02-19T14:55:55;7.05;;;4.03;;
39410;SDS011;26579;43.238;23.124;2023-02-19T14:58:27;8.10;;;4.60;;
39410;SDS011;26579;43.238;23.124;2023-02-19T15:00:56;12.32;;;9.20;;
39410;SDS011;26579;43.238;23.124;2023-02-19T15:05:54;5.30;;;3.40;;
39410;SDS011;26579;43.238;23.124;2023-02-19T15:08:25;8.70;;;4.90;;
39410;SDS011;26579;43.238;23.124;2023-02-19T15:10:55;10.75;;;4.30;;
39410;SDS011;26579;43.238;23.124;2023-02-19T15:13:24;6.93;;;4.22;;
39410;SDS011;26579;43.238;23.124;2023-02-19T15:15:52;8.45;;;5.88;;
39410;SDS011;26579;43.238;23.124;2023-02-19T15:18:19;9.20;;;5.38;;
39410;SDS011;26579;43.238;23.124;2023-02-19T15:20:47;9.73;;;5.93;;
39410;SDS011;26579;43.238;23.124;2023-02-19T15:23:19;11.50;;;7.25;;
39410;SDS011;26579;43.238;23.124;2023-02-19T15:25:47;11.88;;;6.70;;
39410;SDS011;26579;43.238;23.124;2023-02-19T15:33:23;11.20;;;6.35;;
39410;SDS011;26579;43.238;23.124;2023-02-19T15:35:51;11.40;;;6.18;;
39410;SDS011;26579;43.238;23.124;2023-02-19T15:38:24;16.40;;;6.33;;
39410;SDS011;26579;43.238;23.124;2023-02-19T15:40:50;18.48;;;8.75;;
39410;SDS011;26579;43.238;23.124;2023-02-19T15:43:30;18.00;;;7.15;;
39410;SDS011;26579;43.238;23.124;2023-02-19T15:46:03;14.93;;;5.30;;
39410;SDS011;26579;43.238;23.124;2023-02-19T15:48:41;10.77;;;5.53;;
39410;SDS011;26579;43.238;23.124;2023-02-19T15:51:24;10.88;;;6.93;;
39410;SDS011;26579;43.238;23.124;2023-02-19T15:54:03;17.10;;;9.27;;
39410;SDS011;26579;43.238;23.124;2023-02-19T15:56:38;28.20;;;8.60;;
39410;SDS011;26579;43.238;23.124;2023-02-19T15:59:17;18.42;;;6.47;;
39410;SDS011;26579;43.238;23.124;2023-02-19T16:01:58;26.73;;;9.55;;
39410;SDS011;26579;43.238;23.124;2023-02-19T16:04:24;22.38;;;8.77;;
39410;SDS011;26579;43.238;23.124;2023-02-19T16:06:57;36.55;;;13.82;;
39410;SDS011;26579;43.238;23.124;2023-02-19T16:09:28;24.77;;;11.18;;
39410;SDS011;26579;43.238;23.124;2023-02-19T16:11:59;34.00;;;11.90;;
39410;SDS011;26579;43.238;23.124;2023-02-19T16:14:30;40.30;;;15.32;;
39410;SDS011;26579;43.238;23.124;2023-02-19T16:19:42;58.65;;;19.20;;
39410;SDS011;26579;43.238;23.124;2023-02-19T16:22:17;67.82;;;23.42;;
39410;SDS011;26579;43.238;23.124;2023-02-19T16:24:56;150.05;;;93.15;;
39410;SDS011;26579;43.238;23.124;2023-02-19T16:30:06;120.15;;;72.20;;
39410;SDS011;26579;43.238;23.124;2023-02-19T16:32:33;75.45;;;46.95;;
39410;SDS011;26579;43.238;23.124;2023-02-19T16:34:59;102.68;;;62.15;;
39410;SDS011;26579;43.238;23.124;2023-02-19T16:37:29;81.35;;;53.67;;
39410;SDS011;26579;43.238;23.124;2023-02-19T16:42:33;53.83;;;35.03;;
39410;SDS011;26579;43.238;23.124;2023-02-19T16:45:05;48.03;;;29.20;;
39410;SDS011;26579;43.238;23.124;2023-02-19T16:47:38;73.53;;;43.05;;
39410;SDS011;26579;43.238;23.124;2023-02-19T16:50:06;86.25;;;55.22;;
39410;SDS011;26579;43.238;23.124;2023-02-19T16:52:58;114.40;;;68.82;;
39410;SDS011;26579;43.238;23.124;2023-02-19T16:55:25;99.88;;;50.65;;
39410;SDS011;26579;43.238;23.124;2023-02-19T16:57:55;87.82;;;46.30;;
39410;SDS011;26579;43.238;23.124;2023-02-19T17:00:27;77.10;;;45.30;;
39410;SDS011;26579;43.238;23.124;2023-02-19T17:02:59;63.88;;;40.40;;
39410;SDS011;26579;43.238;23.124;2023-02-19T17:05:29;113.22;;;65.90;;
39410;SDS011;26579;43.238;23.124;2023-02-19T17:07:55;95.30;;;58.75;;
39410;SDS011;26579;43.238;23.124;2023-02-19T17:10:22;62.35;;;40.65;;
39410;SDS011;26579;43.238;23.124;2023-02-19T17:12:50;72.88;;;45.72;;
39410;SDS011;26579;43.238;23.124;2023-02-19T17:15:17;103.97;;;60.97;;
39410;SDS011;26579;43.238;23.124;2023-02-19T17:17:43;136.43;;;78.03;;
39410;SDS011;26579;43.238;23.124;2023-02-19T17:22:41;147.13;;;84.45;;
39410;SDS011;26579;43.238;23.124;2023-02-19T17:25:06;145.20;;;77.47;;